createdAt,value
2018-04-10T00:01:35.631Z,63.26
2018-04-10T00:04:03.111Z,63.45
2018-04-10T00:06:30.569Z,63.60
2018-04-10T00:08:58.064Z,63.65
2018-04-10T00:11:25.581Z,63.78
2018-04-10T00:13:53.032Z,63.67
2018-04-10T00:16:20.502Z,63.67
2018-04-10T00:18:47.999Z,63.75
2018-04-10T00:21:15.496Z,63.90
2018-04-10T00:23:42.957Z,63.95
2018-04-10T00:26:10.416Z,64.12
2018-04-10T00:28:37.919Z,64.32
2018-04-10T00:31:05.392Z,64.24
2018-04-10T00:33:32.850Z,64.15
2018-04-10T00:36:00.335Z,64.19
2018-04-10T00:38:27.829Z,64.23
2018-04-10T00:40:55.288Z,64.32
2018-04-10T00:43:22.764Z,64.43
2018-04-10T00:45:50.340Z,64.42
2018-04-10T00:48:17.792Z,64.21
2018-04-10T00:50:45.272Z,64.19
2018-04-10T00:53:24.540Z,64.05
2018-04-10T00:55:52.017Z,64.06
2018-04-10T00:58:19.482Z,64.09
2018-04-10T01:00:47.000Z,64.13
2018-04-10T01:03:14.456Z,64.38
2018-04-10T01:05:41.923Z,64.50
2018-04-10T01:08:09.405Z,64.54
2018-04-10T01:10:36.857Z,64.77
2018-04-10T01:13:04.337Z,64.89
2018-04-10T01:15:31.843Z,64.89
2018-04-10T01:17:59.340Z,64.95
2018-04-10T01:20:26.799Z,65.02
2018-04-10T01:22:54.328Z,65.16
2018-04-10T01:25:21.921Z,65.17
2018-04-10T01:27:49.391Z,65.23
2018-04-10T01:30:16.884Z,65.32
2018-04-10T01:32:44.374Z,65.30
2018-04-10T01:35:11.842Z,65.18
2018-04-10T01:37:39.348Z,65.09
2018-04-10T01:40:06.871Z,65.03
2018-04-10T01:42:34.428Z,64.79
2018-04-10T01:45:01.908Z,64.81
2018-04-10T01:47:29.371Z,64.81
2018-04-10T01:49:56.826Z,64.89
2018-04-10T01:52:24.303Z,65.00
2018-04-10T01:54:51.924Z,65.19
2018-04-10T01:57:19.404Z,65.18
2018-04-10T01:59:46.868Z,65.29
2018-04-10T02:02:14.507Z,65.23
2018-04-10T02:04:42.057Z,65.27
2018-04-10T02:07:09.532Z,65.24
2018-04-10T02:09:37.024Z,65.32
2018-04-10T02:12:04.543Z,65.37
2018-04-10T02:14:32.055Z,65.39
2018-04-10T02:16:59.536Z,65.38
2018-04-10T02:19:27.096Z,65.43
2018-04-10T02:21:54.552Z,65.66
2018-04-10T02:24:22.129Z,65.73
2018-04-10T02:26:49.588Z,65.90
2018-04-10T02:29:17.044Z,65.96
2018-04-10T02:31:44.593Z,66.08
2018-04-10T02:34:12.052Z,66.24
2018-04-10T02:36:39.507Z,66.36
2018-04-10T02:39:06.984Z,66.52
2018-04-10T02:41:34.440Z,66.61
2018-04-10T02:44:01.987Z,66.87
2018-04-10T02:46:29.540Z,67.16
2018-04-10T02:48:57.017Z,67.23
2018-04-10T02:51:24.481Z,67.37
2018-04-10T02:53:51.959Z,67.40
2018-04-10T02:56:19.456Z,67.39
2018-04-10T02:58:46.924Z,67.55
2018-04-10T03:01:14.384Z,67.71
2018-04-10T03:03:41.897Z,67.90
2018-04-10T03:06:09.408Z,68.03
2018-04-10T03:08:36.859Z,68.16
2018-04-10T03:11:04.378Z,68.23
2018-04-10T03:13:31.884Z,68.33
2018-04-10T03:15:59.437Z,68.51
2018-04-10T03:18:26.924Z,68.66
2018-04-10T03:20:54.379Z,68.71
2018-04-10T03:23:21.869Z,68.86
2018-04-10T03:25:49.376Z,69.00
2018-04-10T03:28:16.827Z,69.17
2018-04-10T03:30:44.335Z,69.21
2018-04-10T03:33:11.794Z,69.41
2018-04-10T03:35:39.347Z,69.45
2018-04-10T03:38:06.865Z,69.43
2018-04-10T03:40:34.331Z,69.46
2018-04-10T03:43:01.789Z,69.55
2018-04-10T03:45:29.310Z,69.63
2018-04-10T03:47:56.927Z,69.68
2018-04-10T03:50:24.361Z,69.68
2018-04-10T03:52:51.832Z,69.71
2018-04-10T03:55:19.292Z,69.90
2018-04-10T03:57:46.751Z,69.93
2018-04-10T04:00:14.240Z,69.95
2018-04-10T04:02:41.692Z,69.99
2018-04-10T04:05:09.148Z,69.98
2018-04-10T04:07:36.655Z,69.99
2018-04-10T04:12:54.517Z,69.91
2018-04-10T04:15:21.978Z,69.84
2018-04-10T04:17:49.440Z,69.87
2018-04-10T04:20:28.788Z,69.84
2018-04-10T04:22:56.247Z,69.91
2018-04-10T04:25:23.695Z,69.90
2018-04-10T04:27:51.237Z,69.88
2018-04-10T04:30:18.697Z,69.69
2018-04-10T04:32:46.160Z,69.77
2018-04-10T04:35:13.656Z,69.79
2018-04-10T04:37:41.176Z,69.79
2018-04-10T04:40:08.632Z,69.77
2018-04-10T04:42:36.099Z,69.65
2018-04-10T04:45:03.625Z,69.51
2018-04-10T04:47:31.095Z,69.34
2018-04-10T04:50:03.571Z,69.25
2018-04-10T04:52:31.032Z,69.12
2018-04-10T04:54:58.504Z,69.12
2018-04-10T04:57:25.970Z,68.85
2018-04-10T04:59:53.516Z,68.89
2018-04-10T05:02:20.972Z,68.62
2018-04-10T05:04:48.563Z,68.55
2018-04-10T05:07:16.068Z,68.47
2018-04-10T05:09:43.529Z,68.47
2018-04-10T05:12:11.013Z,68.31
2018-04-10T05:14:38.464Z,68.25
2018-04-10T05:17:05.921Z,68.29
2018-04-10T05:19:33.384Z,68.14
2018-04-10T05:22:00.862Z,67.84
2018-04-10T05:24:28.387Z,67.78
2018-04-10T05:26:55.884Z,67.94
2018-04-10T05:29:23.370Z,67.81
2018-04-10T05:31:50.898Z,67.80
2018-04-10T05:34:18.421Z,67.79
2018-04-10T05:36:45.902Z,67.77
2018-04-10T05:39:13.484Z,67.50
2018-04-10T05:41:41.102Z,66.74
2018-04-10T05:44:08.698Z,66.84
2018-04-10T05:46:36.162Z,67.05
2018-04-10T05:49:03.726Z,66.70
2018-04-10T05:51:31.211Z,66.64
2018-04-10T05:53:58.664Z,66.40
2018-04-10T05:56:26.124Z,66.23
2018-04-10T05:58:53.638Z,65.99
2018-04-10T06:01:21.155Z,66.17
2018-04-10T06:03:48.612Z,65.87
2018-04-10T06:06:16.214Z,65.55
2018-04-10T06:08:43.732Z,65.46
2018-04-10T06:11:11.200Z,65.23
2018-04-10T06:13:38.662Z,64.95
2018-04-10T06:16:06.157Z,64.34
2018-04-10T06:18:33.620Z,63.87
2018-04-10T06:21:01.084Z,63.88
2018-04-10T06:23:28.559Z,63.78
2018-04-10T06:25:56.025Z,63.57
2018-04-10T06:28:23.597Z,63.45
2018-04-10T06:30:51.090Z,62.89
2018-04-10T06:33:18.570Z,62.55
2018-04-10T06:35:46.040Z,61.93
2018-04-10T06:38:13.618Z,61.93
2018-04-10T06:40:41.181Z,61.79
2018-04-10T06:43:08.640Z,61.93
2018-04-10T06:45:36.231Z,61.86
2018-04-10T06:48:03.760Z,61.74
2018-04-10T06:50:31.212Z,61.04
2018-04-10T06:52:58.828Z,60.14
2018-04-10T06:55:26.380Z,60.47
2018-04-10T06:57:53.940Z,60.20
2018-04-10T07:00:21.430Z,59.91
2018-04-10T07:02:48.899Z,60.00
2018-04-10T07:05:16.365Z,60.08
2018-04-10T07:07:43.837Z,59.75
2018-04-10T07:10:11.308Z,59.60
2018-04-10T07:12:38.780Z,59.12
2018-04-10T07:15:06.240Z,58.94
2018-04-10T07:17:33.762Z,58.65
2018-04-10T07:20:01.223Z,58.54
2018-04-10T07:22:28.697Z,58.37
2018-04-10T07:24:56.333Z,58.14
2018-04-10T07:27:23.897Z,58.20
2018-04-10T07:29:51.424Z,57.21
2018-04-10T07:32:18.909Z,56.47
2018-04-10T07:34:46.395Z,55.70
2018-04-10T07:37:13.939Z,55.11
2018-04-10T07:39:41.416Z,54.87
2018-04-10T07:42:08.920Z,54.79
2018-04-10T07:44:36.374Z,54.61
2018-04-10T07:47:03.853Z,54.08
2018-04-10T07:49:31.344Z,53.92
2018-04-10T07:51:58.804Z,53.37
2018-04-10T07:54:26.397Z,53.13
2018-04-10T07:56:53.882Z,53.76
2018-04-10T07:59:21.359Z,53.50
2018-04-10T08:01:48.959Z,53.81
2018-04-10T08:04:16.480Z,53.72
2018-04-10T08:06:43.936Z,54.04
2018-04-10T08:09:11.389Z,54.49
2018-04-10T08:11:38.867Z,54.30
2018-04-10T08:14:06.321Z,54.34
2018-04-10T08:16:33.803Z,53.73
2018-04-10T08:19:01.265Z,53.67
2018-04-10T08:21:28.738Z,53.57
2018-04-10T08:23:56.371Z,53.12
2018-04-10T08:26:23.833Z,52.16
2018-04-10T08:28:51.341Z,51.43
2018-04-10T08:31:18.823Z,50.83
2018-04-10T08:33:46.280Z,50.62
2018-04-10T08:36:13.755Z,50.16
2018-04-10T08:38:41.245Z,51.07
2018-04-10T08:41:08.704Z,51.42
2018-04-10T08:43:36.166Z,51.81
2018-04-10T08:46:03.656Z,51.68
2018-04-10T08:48:31.115Z,51.16
2018-04-10T08:50:58.655Z,50.89
2018-04-10T08:53:26.160Z,50.74
2018-04-10T08:55:53.616Z,49.97
2018-04-10T08:58:21.083Z,49.89
2018-04-10T09:00:48.556Z,48.99
2018-04-10T09:03:16.013Z,49.02
2018-04-10T09:05:43.509Z,49.19
2018-04-10T09:08:10.982Z,48.98
2018-04-10T09:10:38.432Z,48.94
2018-04-10T09:13:06.027Z,48.73
2018-04-10T09:15:33.497Z,48.18
2018-04-10T09:18:00.957Z,48.39
2018-04-10T09:20:28.507Z,48.14
2018-04-10T09:22:56.057Z,48.18
2018-04-10T09:25:23.593Z,48.09
2018-04-10T09:27:51.088Z,47.19
2018-04-10T09:30:18.575Z,46.52
2018-04-10T09:32:46.061Z,46.46
2018-04-10T09:35:13.560Z,46.75
2018-04-10T09:37:41.020Z,46.41
2018-04-10T09:40:08.503Z,46.38
2018-04-10T09:42:35.984Z,46.67
2018-04-10T09:45:03.465Z,46.10
2018-04-10T09:47:30.965Z,45.88
2018-04-10T09:49:58.538Z,46.46
2018-04-10T09:52:26.013Z,46.46
2018-04-10T09:54:53.472Z,46.44
2018-04-10T09:57:21.044Z,46.33
2018-04-10T09:59:48.513Z,46.38
2018-04-10T10:02:15.968Z,45.83
2018-04-10T10:04:43.449Z,45.14
2018-04-10T10:07:12.849Z,43.85
2018-04-10T10:09:40.316Z,44.08
2018-04-10T10:12:07.808Z,44.19
2018-04-10T10:14:35.378Z,44.49
2018-04-10T10:17:02.840Z,44.21
2018-04-10T10:19:30.321Z,44.70
2018-04-10T10:21:57.772Z,44.41
2018-04-10T10:24:25.476Z,44.71
2018-04-10T10:26:52.975Z,44.42
2018-04-10T10:29:20.460Z,44.37
2018-04-10T10:31:47.948Z,43.62
2018-04-10T10:34:15.449Z,42.58
2018-04-10T10:36:42.947Z,42.18
2018-04-10T10:39:10.497Z,41.32
2018-04-10T10:41:38.065Z,41.28
2018-04-10T10:44:05.548Z,41.87
2018-04-10T10:46:33.030Z,42.33
2018-04-10T10:49:00.504Z,42.47
2018-04-10T10:51:27.983Z,42.26
2018-04-10T10:53:55.464Z,42.46
2018-04-10T10:56:22.933Z,42.62
2018-04-10T10:58:50.386Z,42.77
2018-04-10T11:01:17.874Z,42.51
2018-04-10T11:03:45.348Z,42.57
2018-04-10T11:06:12.844Z,42.43
2018-04-10T11:08:40.587Z,42.41
2018-04-10T11:11:08.165Z,42.03
2018-04-10T11:13:35.626Z,42.27
2018-04-10T11:16:03.155Z,41.55
2018-04-10T11:18:30.608Z,40.84
2018-04-10T11:20:58.111Z,40.81
2018-04-10T11:23:25.572Z,40.68
2018-04-10T11:25:53.028Z,40.53
2018-04-10T11:28:20.504Z,40.59
2018-04-10T11:30:48.130Z,40.56
2018-04-10T11:33:15.600Z,40.37
2018-04-10T11:35:43.080Z,40.56
2018-04-10T11:38:10.559Z,40.98
2018-04-10T11:40:38.028Z,40.74
2018-04-10T11:43:05.500Z,40.25
2018-04-10T11:45:33.008Z,40.40
2018-04-10T11:48:00.535Z,40.86
2018-04-10T11:50:28.041Z,41.10
2018-04-10T11:52:55.520Z,40.88
2018-04-10T11:55:22.982Z,40.81
2018-04-10T11:57:50.465Z,40.97
2018-04-10T12:00:17.956Z,40.91
2018-04-10T12:02:45.460Z,40.60
2018-04-10T12:05:12.938Z,41.06
2018-04-10T12:07:40.474Z,40.56
2018-04-10T12:10:07.948Z,40.65
2018-04-10T12:12:35.643Z,39.57
2018-04-10T12:15:03.134Z,39.44
2018-04-10T12:17:30.626Z,39.76
2018-04-10T12:19:58.092Z,40.08
2018-04-10T12:22:25.584Z,39.43
2018-04-10T12:24:53.056Z,38.62
2018-04-10T12:27:20.571Z,37.94
2018-04-10T12:29:48.075Z,37.93
2018-04-10T12:32:15.527Z,37.34
2018-04-10T12:34:42.991Z,36.90
2018-04-10T12:37:10.464Z,36.97
2018-04-10T12:39:38.005Z,36.60
2018-04-10T12:42:05.471Z,36.57
2018-04-10T12:44:32.960Z,36.34
2018-04-10T12:47:00.480Z,36.30
2018-04-10T12:49:27.946Z,36.01
2018-04-10T12:51:55.425Z,35.98
2018-04-10T12:54:22.882Z,34.39
2018-04-10T12:56:50.420Z,34.47
2018-04-10T12:59:17.927Z,33.67
2018-04-10T13:01:45.397Z,33.78
2018-04-10T13:04:12.849Z,32.70
2018-04-10T13:06:40.325Z,31.79
2018-04-10T13:09:07.828Z,31.24
2018-04-10T13:11:35.340Z,32.13
2018-04-10T13:14:02.884Z,32.89
2018-04-10T13:16:30.332Z,33.41
2018-04-10T13:18:57.827Z,33.08
2018-04-10T13:21:25.387Z,34.50
2018-04-10T13:23:52.851Z,36.19
2018-04-10T13:26:20.411Z,36.75
2018-04-10T13:28:47.880Z,37.51
2018-04-10T13:31:15.346Z,37.84
2018-04-10T13:33:42.921Z,37.80
2018-04-10T13:36:10.412Z,38.14
2018-04-10T13:38:37.868Z,38.40
2018-04-10T13:41:05.347Z,38.90
2018-04-10T13:43:32.848Z,39.29
2018-04-10T13:46:00.336Z,39.44
2018-04-10T13:48:27.791Z,39.74
2018-04-10T13:50:55.285Z,39.76
2018-04-10T13:53:22.872Z,39.12
2018-04-10T13:55:50.363Z,39.14
2018-04-10T13:58:17.956Z,39.35
2018-04-10T14:00:45.432Z,39.68
2018-04-10T14:03:12.947Z,39.53
2018-04-10T14:05:40.460Z,39.42
2018-04-10T14:08:07.936Z,39.09
2018-04-10T14:10:35.416Z,39.55
2018-04-10T14:13:03.062Z,40.11
2018-04-10T14:15:30.535Z,39.82
2018-04-10T14:17:58.703Z,39.84
2018-04-10T14:20:26.176Z,39.58
2018-04-10T14:22:53.688Z,38.74
2018-04-10T14:25:21.184Z,38.25
2018-04-10T14:27:48.643Z,37.87
2018-04-10T14:30:16.111Z,38.73
2018-04-10T14:32:43.636Z,38.74
2018-04-10T14:35:11.117Z,38.66
2018-04-10T14:37:38.573Z,38.14
2018-04-10T14:40:06.052Z,37.69
2018-04-10T14:42:33.522Z,37.18
2018-04-10T14:45:01.027Z,36.95
2018-04-10T14:47:28.598Z,36.50
2018-04-10T14:49:56.130Z,36.00
2018-04-10T14:52:23.593Z,35.69
2018-04-10T14:54:51.159Z,35.44
2018-04-10T14:57:18.619Z,35.60
2018-04-10T14:59:46.083Z,35.83
2018-04-10T15:02:13.640Z,36.22
2018-04-10T15:04:41.136Z,36.76
2018-04-10T15:07:08.604Z,36.96
2018-04-10T15:09:36.060Z,37.01
2018-04-10T15:12:03.588Z,36.81
2018-04-10T15:14:31.073Z,36.71
2018-04-10T15:16:58.565Z,36.87
2018-04-10T15:19:26.050Z,37.37
2018-04-10T15:21:53.528Z,37.76
2018-04-10T15:24:21.005Z,38.05
2018-04-10T15:26:48.469Z,38.13
2018-04-10T15:29:15.992Z,38.27
2018-04-10T15:31:43.576Z,38.35
2018-04-10T15:34:11.032Z,38.35
2018-04-10T15:36:38.488Z,38.33
2018-04-10T15:39:06.937Z,38.05
2018-04-10T15:41:34.396Z,37.93
2018-04-10T15:44:01.941Z,37.41
2018-04-10T15:46:29.436Z,37.41
2018-04-10T15:48:56.887Z,36.24
2018-04-10T15:51:24.339Z,34.90
2018-04-10T15:53:51.824Z,34.29
2018-04-10T15:56:19.284Z,33.68
2018-04-10T15:58:46.840Z,33.65
2018-04-10T16:01:14.346Z,32.81
2018-04-10T16:03:41.800Z,32.42
2018-04-10T16:06:09.258Z,32.66
2018-04-10T16:08:36.732Z,30.04
2018-04-10T16:11:04.194Z,28.30
2018-04-10T16:13:31.648Z,28.18
2018-04-10T16:15:59.133Z,28.15
2018-04-10T16:18:26.594Z,27.79
2018-04-10T16:20:54.054Z,27.38
2018-04-10T16:23:21.541Z,27.57
2018-04-10T16:25:49.004Z,27.97
2018-04-10T16:28:16.458Z,28.11
2018-04-10T16:30:43.944Z,28.21
2018-04-10T16:33:11.481Z,27.87
2018-04-10T16:35:38.950Z,28.24
2018-04-10T16:38:06.436Z,28.29
2018-04-10T16:40:33.925Z,28.50
2018-04-10T16:43:01.427Z,28.55
2018-04-10T16:45:28.949Z,28.67
2018-04-10T16:47:56.442Z,28.66
2018-04-10T16:50:24.114Z,28.67
2018-04-10T16:52:51.622Z,29.10
2018-04-10T16:55:19.100Z,29.72
2018-04-10T16:57:46.633Z,30.09
2018-04-10T17:00:14.075Z,30.33
2018-04-10T17:02:41.548Z,30.49
2018-04-10T17:05:09.004Z,30.89
2018-04-10T17:07:36.471Z,31.09
2018-04-10T17:10:03.976Z,31.39
2018-04-10T17:12:31.485Z,31.47
2018-04-10T17:14:58.903Z,31.71
2018-04-10T17:17:26.411Z,31.96
2018-04-10T17:19:53.865Z,32.04
2018-04-10T17:22:21.423Z,32.23
2018-04-10T17:24:48.936Z,32.61
2018-04-10T17:27:16.425Z,33.06
2018-04-10T17:29:43.897Z,33.23
2018-04-10T17:32:11.394Z,33.35
2018-04-10T17:34:38.851Z,33.50
2018-04-10T17:37:06.396Z,33.62
2018-04-10T17:39:33.937Z,33.64
2018-04-10T17:42:01.407Z,34.17
2018-04-10T17:44:28.868Z,34.20
2018-04-10T17:46:56.347Z,34.40
2018-04-10T17:49:23.806Z,34.55
2018-04-10T17:51:51.307Z,34.72
2018-04-10T17:54:18.868Z,34.69
2018-04-10T17:56:46.311Z,34.87
2018-04-10T17:59:13.768Z,34.68
2018-04-10T18:01:41.255Z,34.85
2018-04-10T18:04:08.707Z,35.09
2018-04-10T18:06:36.175Z,35.12
2018-04-10T18:09:03.649Z,35.14
2018-04-10T18:11:31.129Z,35.05
2018-04-10T18:13:58.625Z,35.12
2018-04-10T18:16:26.197Z,34.82
2018-04-10T18:18:53.681Z,34.85
2018-04-10T18:21:21.160Z,34.97
2018-04-10T18:23:48.663Z,34.77
2018-04-10T18:26:16.129Z,34.91
2018-04-10T18:28:43.603Z,34.98
2018-04-10T18:31:11.134Z,34.81
2018-04-10T18:33:38.589Z,34.91
2018-04-10T18:36:06.095Z,34.76
2018-04-10T18:38:33.582Z,34.84
2018-04-10T18:41:01.067Z,34.70
2018-04-10T18:43:28.538Z,34.65
2018-04-10T18:45:56.024Z,34.62
2018-04-10T18:48:23.561Z,34.81
2018-04-10T18:50:51.037Z,34.77
2018-04-10T18:53:18.557Z,34.84
2018-04-10T18:55:46.040Z,35.13
2018-04-10T18:58:13.556Z,35.55
2018-04-10T19:00:40.997Z,40.09
2018-04-10T19:03:08.483Z,42.50
2018-04-10T19:05:35.992Z,45.00
2018-04-10T19:08:03.462Z,48.17
2018-04-10T19:10:30.964Z,51.31
2018-04-10T19:12:58.436Z,52.60
2018-04-10T19:15:25.893Z,54.17
2018-04-10T19:17:53.424Z,55.04
2018-04-10T19:20:20.932Z,55.94
2018-04-10T19:22:48.726Z,56.51
2018-04-10T19:25:16.260Z,57.26
2018-04-10T19:27:43.736Z,57.84
2018-04-10T19:30:11.208Z,58.34
2018-04-10T19:32:38.749Z,58.84
2018-04-10T19:35:06.310Z,58.96
2018-04-10T19:37:33.868Z,59.28
2018-04-10T19:40:01.396Z,59.57
2018-04-10T19:42:28.868Z,59.82
2018-04-10T19:44:56.550Z,60.12
2018-04-10T19:47:24.108Z,60.26
2018-04-10T19:49:51.581Z,60.40
2018-04-10T19:52:19.096Z,60.60
2018-04-10T19:54:46.614Z,60.85
2018-04-10T19:57:14.134Z,61.07
2018-04-10T19:59:41.604Z,61.12
2018-04-10T20:02:09.225Z,61.38
2018-04-10T20:04:36.787Z,61.64
2018-04-10T20:07:04.493Z,61.90
2018-04-10T20:09:32.090Z,62.19
2018-04-10T20:11:59.564Z,62.47
2018-04-10T20:14:27.147Z,62.68
2018-04-10T20:16:54.727Z,62.88
2018-04-10T20:19:22.195Z,63.00
2018-04-10T20:21:49.717Z,63.11
2018-04-10T20:24:17.207Z,63.25
2018-04-10T20:26:44.760Z,63.32
2018-04-10T20:29:12.224Z,63.45
2018-04-10T20:31:39.720Z,63.44
2018-04-10T20:34:07.196Z,63.53
2018-04-10T20:36:34.813Z,63.74
2018-04-10T20:39:02.304Z,63.79
2018-04-10T20:41:29.768Z,63.96
2018-04-10T20:43:57.317Z,64.29
2018-04-10T20:46:24.997Z,64.30
2018-04-10T20:48:52.470Z,64.30
2018-04-10T20:51:19.933Z,64.41
2018-04-10T20:53:47.473Z,64.57
2018-04-10T20:56:14.933Z,64.69
2018-04-10T20:58:42.392Z,64.84
2018-04-10T21:01:09.932Z,65.28
2018-04-10T21:03:37.408Z,65.57
2018-04-10T21:06:04.860Z,65.80
2018-04-10T21:08:32.361Z,66.19
2018-04-10T21:10:59.820Z,66.54
2018-04-10T21:13:27.312Z,66.79
2018-04-10T21:15:54.792Z,67.17
2018-04-10T21:18:22.248Z,67.58
2018-04-10T21:20:49.836Z,67.85
2018-04-10T21:23:17.323Z,67.90
2018-04-10T21:25:44.831Z,68.14
2018-04-10T21:28:12.266Z,68.18
2018-04-10T21:30:39.759Z,68.31
2018-04-10T21:33:07.216Z,68.44
2018-04-10T21:35:34.680Z,68.54
2018-04-10T21:38:02.170Z,68.62
2018-04-10T21:40:29.632Z,68.64
2018-04-10T21:43:02.839Z,68.47
2018-04-10T21:45:30.320Z,68.31
2018-04-10T21:47:57.810Z,68.36
2018-04-10T21:50:25.308Z,68.23
2018-04-10T21:52:52.768Z,68.23
2018-04-10T21:55:20.232Z,68.26
2018-04-10T21:57:47.716Z,68.29
2018-04-10T22:00:15.189Z,68.31
2018-04-10T22:02:42.668Z,68.28
2018-04-10T22:05:10.155Z,68.40
2018-04-10T22:07:37.627Z,68.62
2018-04-10T22:10:05.089Z,68.61
2018-04-10T22:12:32.589Z,68.70
2018-04-10T22:15:00.055Z,68.71
2018-04-10T22:17:27.561Z,68.79
2018-04-10T22:19:55.056Z,68.90
2018-04-10T22:22:22.540Z,68.73
2018-04-10T22:24:50.032Z,68.66
2018-04-10T22:27:17.692Z,68.86
2018-04-10T22:29:45.313Z,68.97
2018-04-10T22:32:12.836Z,69.07
2018-04-10T22:34:40.365Z,69.02
2018-04-10T22:37:07.869Z,68.89
2018-04-10T22:39:35.340Z,68.98
2018-04-10T22:42:02.816Z,69.00
2018-04-10T22:44:30.297Z,69.18
2018-04-10T22:46:57.833Z,69.22
2018-04-10T22:49:25.298Z,69.19
2018-04-10T22:51:52.762Z,69.15
2018-04-10T22:54:25.180Z,69.14
2018-04-10T22:56:52.693Z,69.03
2018-04-10T22:59:20.159Z,68.88
2018-04-10T23:01:47.649Z,68.66
2018-04-10T23:04:15.112Z,68.34
2018-04-10T23:06:42.582Z,68.26
2018-04-10T23:09:10.077Z,68.15
2018-04-10T23:11:37.555Z,68.18
2018-04-10T23:14:05.055Z,68.06
2018-04-10T23:16:32.544Z,68.30
2018-04-10T23:19:00.032Z,68.35
2018-04-10T23:21:27.511Z,68.33
2018-04-10T23:23:55.006Z,68.30
2018-04-10T23:26:22.464Z,68.43
2018-04-10T23:28:49.937Z,68.51
2018-04-10T23:31:17.423Z,68.50
2018-04-10T23:33:44.893Z,68.34
2018-04-10T23:36:12.453Z,68.12
2018-04-10T23:38:39.956Z,68.01
2018-04-10T23:41:07.440Z,67.87
2018-04-10T23:43:34.905Z,67.92
2018-04-10T23:46:02.390Z,67.93
2018-04-10T23:48:29.855Z,67.79
2018-04-10T23:50:57.305Z,67.64
2018-04-10T23:53:24.784Z,67.68
2018-04-10T23:55:52.243Z,67.68
2018-04-10T23:58:19.708Z,67.66
